sensor_id;sensor_type;location;lat;lon;timestamp;temperature;humidity
210;DHT22;90;48.810;9.120;2022-12-29T00:01:33;9.70;72.90
210;DHT22;90;48.810;9.120;2022-12-29T00:04:01;9.70;72.70
210;DHT22;90;48.810;9.120;2022-12-29T00:06:28;9.70;72.60
210;DHT22;90;48.810;9.120;2022-12-29T00:08:55;9.70;72.60
210;DHT22;90;48.810;9.120;2022-12-29T00:11:23;9.70;72.90
210;DHT22;90;48.810;9.120;2022-12-29T00:13:51;9.80;72.40
210;DHT22;90;48.810;9.120;2022-12-29T00:16:37;9.80;72.60
210;DHT22;90;48.810;9.120;2022-12-29T00:19:07;9.80;72.70
210;DHT22;90;48.810;9.120;2022-12-29T00:21:54;9.80;72.30
210;DHT22;90;48.810;9.120;2022-12-29T00:24:39;9.80;72.30
210;DHT22;90;48.810;9.120;2022-12-29T00:27:23;9.80;72.40
210;DHT22;90;48.810;9.120;2022-12-29T00:30:09;9.90;72.20
210;DHT22;90;48.810;9.120;2022-12-29T00:32:55;9.90;72.40
210;DHT22;90;48.810;9.120;2022-12-29T00:35:43;9.80;72.70
210;DHT22;90;48.810;9.120;2022-12-29T00:38:10;9.90;72.60
210;DHT22;90;48.810;9.120;2022-12-29T00:40:56;9.90;72.60
210;DHT22;90;48.810;9.120;2022-12-29T00:43:40;9.90;72.60
210;DHT22;90;48.810;9.120;2022-12-29T00:46:25;9.90;72.50
210;DHT22;90;48.810;9.120;2022-12-29T00:48:53;9.90;72.50
210;DHT22;90;48.810;9.120;2022-12-29T00:51:37;9.90;72.40
210;DHT22;90;48.810;9.120;2022-12-29T00:54:06;9.90;72.40
210;DHT22;90;48.810;9.120;2022-12-29T00:56:33;9.90;72.50
210;DHT22;90;48.810;9.120;2022-12-29T00:59:00;9.90;72.50
210;DHT22;90;48.810;9.120;2022-12-29T01:01:27;10.00;72.10
210;DHT22;90;48.810;9.120;2022-12-29T01:03:56;10.00;72.10
210;DHT22;90;48.810;9.120;2022-12-29T01:06:23;10.00;72.30
210;DHT22;90;48.810;9.120;2022-12-29T01:08:51;10.10;71.90
210;DHT22;90;48.810;9.120;2022-12-29T01:11:38;10.10;71.80
210;DHT22;90;48.810;9.120;2022-12-29T01:14:04;10.20;71.80
210;DHT22;90;48.810;9.120;2022-12-29T01:16:32;10.30;71.50
210;DHT22;90;48.810;9.120;2022-12-29T01:19:01;10.30;71.50
210;DHT22;90;48.810;9.120;2022-12-29T01:21:28;10.30;71.40
210;DHT22;90;48.810;9.120;2022-12-29T01:23:55;10.30;71.50
210;DHT22;90;48.810;9.120;2022-12-29T01:26:22;10.40;71.10
210;DHT22;90;48.810;9.120;2022-12-29T01:28:49;10.50;70.80
210;DHT22;90;48.810;9.120;2022-12-29T01:31:16;10.50;70.80
210;DHT22;90;48.810;9.120;2022-12-29T01:33:43;10.50;71.10
210;DHT22;90;48.810;9.120;2022-12-29T01:36:14;10.50;70.70
210;DHT22;90;48.810;9.120;2022-12-29T01:38:42;10.60;70.60
210;DHT22;90;48.810;9.120;2022-12-29T01:41:12;10.60;70.50
210;DHT22;90;48.810;9.120;2022-12-29T01:43:41;10.60;70.40
210;DHT22;90;48.810;9.120;2022-12-29T01:46:21;10.70;70.20
210;DHT22;90;48.810;9.120;2022-12-29T01:48:52;10.70;70.20
210;DHT22;90;48.810;9.120;2022-12-29T01:51:23;10.70;70.10
210;DHT22;90;48.810;9.120;2022-12-29T01:53:53;10.70;70.20
210;DHT22;90;48.810;9.120;2022-12-29T01:56:22;10.70;70.20
210;DHT22;90;48.810;9.120;2022-12-29T01:58:55;10.70;70.10
210;DHT22;90;48.810;9.120;2022-12-29T02:01:24;10.70;70.10
210;DHT22;90;48.810;9.120;2022-12-29T02:03:52;10.70;69.90
210;DHT22;90;48.810;9.120;2022-12-29T02:06:23;10.70;69.80
210;DHT22;90;48.810;9.120;2022-12-29T02:08:53;10.70;69.80
210;DHT22;90;48.810;9.120;2022-12-29T02:11:23;10.70;69.80
210;DHT22;90;48.810;9.120;2022-12-29T02:13:51;10.70;69.80
210;DHT22;90;48.810;9.120;2022-12-29T02:16:35;10.80;69.80
210;DHT22;90;48.810;9.120;2022-12-29T02:19:31;10.70;70.00
210;DHT22;90;48.810;9.120;2022-12-29T02:22:09;10.70;69.80
210;DHT22;90;48.810;9.120;2022-12-29T02:25:15;10.80;69.80
210;DHT22;90;48.810;9.120;2022-12-29T02:27:55;10.70;69.80
210;DHT22;90;48.810;9.120;2022-12-29T02:30:45;10.70;69.80
210;DHT22;90;48.810;9.120;2022-12-29T02:33:24;10.70;69.90
210;DHT22;90;48.810;9.120;2022-12-29T02:36:03;10.70;69.90
210;DHT22;90;48.810;9.120;2022-12-29T02:38:45;10.80;69.60
210;DHT22;90;48.810;9.120;2022-12-29T02:41:22;10.80;69.60
210;DHT22;90;48.810;9.120;2022-12-29T02:43:56;10.80;69.40
210;DHT22;90;48.810;9.120;2022-12-29T02:46:33;10.80;69.60
210;DHT22;90;48.810;9.120;2022-12-29T02:49:07;10.80;69.60
210;DHT22;90;48.810;9.120;2022-12-29T02:51:43;10.70;70.10
210;DHT22;90;48.810;9.120;2022-12-29T02:54:10;10.70;70.10
210;DHT22;90;48.810;9.120;2022-12-29T02:56:55;10.70;69.80
210;DHT22;90;48.810;9.120;2022-12-29T02:59:28;10.70;69.70
210;DHT22;90;48.810;9.120;2022-12-29T03:02:09;10.80;69.50
210;DHT22;90;48.810;9.120;2022-12-29T03:04:59;10.80;69.70
210;DHT22;90;48.810;9.120;2022-12-29T03:07:36;10.90;69.50
210;DHT22;90;48.810;9.120;2022-12-29T03:10:14;10.90;69.10
210;DHT22;90;48.810;9.120;2022-12-29T03:12:50;10.90;69.10
210;DHT22;90;48.810;9.120;2022-12-29T03:15:42;10.90;69.30
210;DHT22;90;48.810;9.120;2022-12-29T03:18:37;10.90;69.10
210;DHT22;90;48.810;9.120;2022-12-29T03:21:10;10.90;69.10
210;DHT22;90;48.810;9.120;2022-12-29T03:23:40;10.90;69.10
210;DHT22;90;48.810;9.120;2022-12-29T03:26:11;11.00;68.90
210;DHT22;90;48.810;9.120;2022-12-29T03:28:41;11.00;69.00
210;DHT22;90;48.810;9.120;2022-12-29T03:31:11;11.00;69.00
210;DHT22;90;48.810;9.120;2022-12-29T03:33:41;11.00;69.00
210;DHT22;90;48.810;9.120;2022-12-29T03:36:13;11.00;68.90
210;DHT22;90;48.810;9.120;2022-12-29T03:38:46;11.00;69.10
210;DHT22;90;48.810;9.120;2022-12-29T03:41:17;11.10;69.00
210;DHT22;90;48.810;9.120;2022-12-29T03:43:45;11.10;68.90
210;DHT22;90;48.810;9.120;2022-12-29T03:46:12;11.20;68.70
210;DHT22;90;48.810;9.120;2022-12-29T03:48:41;11.20;68.60
210;DHT22;90;48.810;9.120;2022-12-29T03:51:08;11.20;68.70
210;DHT22;90;48.810;9.120;2022-12-29T03:53:35;11.20;68.80
210;DHT22;90;48.810;9.120;2022-12-29T03:56:03;11.20;68.70
210;DHT22;90;48.810;9.120;2022-12-29T03:58:30;11.20;68.80
210;DHT22;90;48.810;9.120;2022-12-29T04:00:56;11.20;68.90
210;DHT22;90;48.810;9.120;2022-12-29T04:03:23;11.20;69.00
210;DHT22;90;48.810;9.120;2022-12-29T04:05:54;11.20;69.10
210;DHT22;90;48.810;9.120;2022-12-29T04:08:21;11.10;69.50
210;DHT22;90;48.810;9.120;2022-12-29T04:10:48;11.00;69.70
210;DHT22;90;48.810;9.120;2022-12-29T04:13:16;11.00;69.90
210;DHT22;90;48.810;9.120;2022-12-29T04:15:43;11.00;69.90
210;DHT22;90;48.810;9.120;2022-12-29T04:18:10;11.00;70.00
210;DHT22;90;48.810;9.120;2022-12-29T04:20:38;11.00;70.30
210;DHT22;90;48.810;9.120;2022-12-29T04:23:23;11.00;70.10
210;DHT22;90;48.810;9.120;2022-12-29T04:25:51;11.00;70.40
210;DHT22;90;48.810;9.120;2022-12-29T04:28:18;11.00;70.40
210;DHT22;90;48.810;9.120;2022-12-29T04:30:45;11.10;70.70
210;DHT22;90;48.810;9.120;2022-12-29T04:33:13;11.00;71.00
210;DHT22;90;48.810;9.120;2022-12-29T04:35:41;11.00;71.10
210;DHT22;90;48.810;9.120;2022-12-29T04:38:08;11.10;71.30
210;DHT22;90;48.810;9.120;2022-12-29T04:40:37;11.10;71.30
210;DHT22;90;48.810;9.120;2022-12-29T04:43:05;11.20;71.40
210;DHT22;90;48.810;9.120;2022-12-29T04:45:32;11.20;71.50
210;DHT22;90;48.810;9.120;2022-12-29T04:47:59;11.10;71.70
210;DHT22;90;48.810;9.120;2022-12-29T04:50:26;11.10;71.90
210;DHT22;90;48.810;9.120;2022-12-29T04:52:53;11.10;72.10
210;DHT22;90;48.810;9.120;2022-12-29T04:55:20;11.00;72.40
210;DHT22;90;48.810;9.120;2022-12-29T04:57:49;11.00;72.70
210;DHT22;90;48.810;9.120;2022-12-29T05:00:16;11.10;72.70
210;DHT22;90;48.810;9.120;2022-12-29T05:02:43;11.10;72.50
210;DHT22;90;48.810;9.120;2022-12-29T05:05:10;11.10;72.70
210;DHT22;90;48.810;9.120;2022-12-29T05:07:37;11.10;72.80
210;DHT22;90;48.810;9.120;2022-12-29T05:10:05;11.10;72.90
210;DHT22;90;48.810;9.120;2022-12-29T05:12:33;11.10;72.90
210;DHT22;90;48.810;9.120;2022-12-29T05:15:03;11.10;73.10
210;DHT22;90;48.810;9.120;2022-12-29T05:17:31;11.20;73.00
210;DHT22;90;48.810;9.120;2022-12-29T05:19:58;11.20;72.90
210;DHT22;90;48.810;9.120;2022-12-29T05:22:25;11.20;72.90
210;DHT22;90;48.810;9.120;2022-12-29T05:24:52;11.20;73.10
210;DHT22;90;48.810;9.120;2022-12-29T05:27:19;11.20;73.20
210;DHT22;90;48.810;9.120;2022-12-29T05:29:46;11.20;73.10
210;DHT22;90;48.810;9.120;2022-12-29T05:32:14;11.20;73.10
210;DHT22;90;48.810;9.120;2022-12-29T05:34:41;11.10;73.10
210;DHT22;90;48.810;9.120;2022-12-29T05:37:08;11.20;72.90
210;DHT22;90;48.810;9.120;2022-12-29T05:39:35;11.20;72.90
210;DHT22;90;48.810;9.120;2022-12-29T05:42:02;11.30;72.80
210;DHT22;90;48.810;9.120;2022-12-29T05:44:29;11.30;72.80
210;DHT22;90;48.810;9.120;2022-12-29T05:46:56;11.30;72.80
210;DHT22;90;48.810;9.120;2022-12-29T05:49:25;11.30;73.00
210;DHT22;90;48.810;9.120;2022-12-29T05:51:52;11.20;73.10
210;DHT22;90;48.810;9.120;2022-12-29T05:54:19;11.20;73.00
210;DHT22;90;48.810;9.120;2022-12-29T05:56:46;11.20;73.00
210;DHT22;90;48.810;9.120;2022-12-29T05:59:13;11.30;72.80
210;DHT22;90;48.810;9.120;2022-12-29T06:01:40;11.30;72.90
210;DHT22;90;48.810;9.120;2022-12-29T06:04:07;11.30;72.90
210;DHT22;90;48.810;9.120;2022-12-29T06:06:36;11.30;72.60
210;DHT22;90;48.810;9.120;2022-12-29T06:09:05;11.30;72.60
210;DHT22;90;48.810;9.120;2022-12-29T06:11:32;11.30;72.70
210;DHT22;90;48.810;9.120;2022-12-29T06:13:59;11.30;72.50
210;DHT22;90;48.810;9.120;2022-12-29T06:16:26;11.40;72.10
210;DHT22;90;48.810;9.120;2022-12-29T06:18:53;11.40;72.20
210;DHT22;90;48.810;9.120;2022-12-29T06:21:20;11.30;72.30
210;DHT22;90;48.810;9.120;2022-12-29T06:23:48;11.30;72.40
210;DHT22;90;48.810;9.120;2022-12-29T06:26:15;11.30;72.40
210;DHT22;90;48.810;9.120;2022-12-29T06:28:42;11.30;72.30
210;DHT22;90;48.810;9.120;2022-12-29T06:31:10;11.30;72.20
210;DHT22;90;48.810;9.120;2022-12-29T06:33:37;11.30;72.00
210;DHT22;90;48.810;9.120;2022-12-29T06:36:05;11.30;72.00
210;DHT22;90;48.810;9.120;2022-12-29T06:38:32;11.30;72.10
210;DHT22;90;48.810;9.120;2022-12-29T06:41:02;11.30;72.10
210;DHT22;90;48.810;9.120;2022-12-29T06:43:29;11.40;71.80
210;DHT22;90;48.810;9.120;2022-12-29T06:45:57;11.40;71.60
210;DHT22;90;48.810;9.120;2022-12-29T06:48:24;11.30;71.60
210;DHT22;90;48.810;9.120;2022-12-29T06:50:51;11.30;71.80
210;DHT22;90;48.810;9.120;2022-12-29T06:53:18;11.30;71.60
210;DHT22;90;48.810;9.120;2022-12-29T06:55:45;11.30;71.60
210;DHT22;90;48.810;9.120;2022-12-29T06:58:13;11.40;71.50
210;DHT22;90;48.810;9.120;2022-12-29T07:00:41;11.30;71.30
210;DHT22;90;48.810;9.120;2022-12-29T07:03:08;11.30;71.90
210;DHT22;90;48.810;9.120;2022-12-29T07:05:35;11.30;71.80
210;DHT22;90;48.810;9.120;2022-12-29T07:08:02;11.20;71.60
210;DHT22;90;48.810;9.120;2022-12-29T07:10:29;11.20;71.80
210;DHT22;90;48.810;9.120;2022-12-29T07:12:56;11.10;71.90
210;DHT22;90;48.810;9.120;2022-12-29T07:15:24;11.10;71.80
210;DHT22;90;48.810;9.120;2022-12-29T07:17:51;11.10;71.70
210;DHT22;90;48.810;9.120;2022-12-29T07:20:18;11.10;71.60
210;DHT22;90;48.810;9.120;2022-12-29T07:22:48;11.10;71.40
210;DHT22;90;48.810;9.120;2022-12-29T07:25:15;11.10;71.30
210;DHT22;90;48.810;9.120;2022-12-29T07:27:42;11.10;71.10
210;DHT22;90;48.810;9.120;2022-12-29T07:30:10;11.10;71.20
210;DHT22;90;48.810;9.120;2022-12-29T07:32:38;11.10;71.30
210;DHT22;90;48.810;9.120;2022-12-29T07:35:06;11.10;71.10
210;DHT22;90;48.810;9.120;2022-12-29T07:37:33;11.00;71.30
210;DHT22;90;48.810;9.120;2022-12-29T07:40:01;11.00;71.20
210;DHT22;90;48.810;9.120;2022-12-29T07:42:29;11.00;71.40
210;DHT22;90;48.810;9.120;2022-12-29T07:44:55;11.00;71.30
210;DHT22;90;48.810;9.120;2022-12-29T07:47:23;11.00;71.00
210;DHT22;90;48.810;9.120;2022-12-29T07:49:52;11.00;71.00
210;DHT22;90;48.810;9.120;2022-12-29T07:52:18;11.00;71.10
210;DHT22;90;48.810;9.120;2022-12-29T07:54:46;10.90;71.40
210;DHT22;90;48.810;9.120;2022-12-29T07:57:13;10.90;71.60
210;DHT22;90;48.810;9.120;2022-12-29T07:59:40;10.90;71.70
210;DHT22;90;48.810;9.120;2022-12-29T08:02:09;10.90;71.30
210;DHT22;90;48.810;9.120;2022-12-29T08:04:36;10.90;71.30
210;DHT22;90;48.810;9.120;2022-12-29T08:07:05;11.00;71.00
210;DHT22;90;48.810;9.120;2022-12-29T08:09:32;11.00;71.20
210;DHT22;90;48.810;9.120;2022-12-29T08:11:59;11.00;71.30
210;DHT22;90;48.810;9.120;2022-12-29T08:14:26;11.00;71.40
210;DHT22;90;48.810;9.120;2022-12-29T08:16:54;10.90;71.50
210;DHT22;90;48.810;9.120;2022-12-29T08:19:21;10.90;71.40
210;DHT22;90;48.810;9.120;2022-12-29T08:21:48;11.00;71.40
210;DHT22;90;48.810;9.120;2022-12-29T08:24:17;11.10;71.00
210;DHT22;90;48.810;9.120;2022-12-29T08:26:45;11.00;71.10
210;DHT22;90;48.810;9.120;2022-12-29T08:29:12;11.10;71.00
210;DHT22;90;48.810;9.120;2022-12-29T08:31:39;11.10;70.70
210;DHT22;90;48.810;9.120;2022-12-29T08:34:07;11.10;70.60
210;DHT22;90;48.810;9.120;2022-12-29T08:36:35;11.20;70.60
210;DHT22;90;48.810;9.120;2022-12-29T08:39:03;11.20;70.60
210;DHT22;90;48.810;9.120;2022-12-29T08:41:32;11.20;70.70
210;DHT22;90;48.810;9.120;2022-12-29T08:43:58;11.20;70.50
210;DHT22;90;48.810;9.120;2022-12-29T08:46:26;11.20;70.40
210;DHT22;90;48.810;9.120;2022-12-29T08:48:53;11.20;70.40
210;DHT22;90;48.810;9.120;2022-12-29T08:51:20;11.30;70.20
210;DHT22;90;48.810;9.120;2022-12-29T08:53:47;11.30;70.10
210;DHT22;90;48.810;9.120;2022-12-29T08:56:14;11.40;69.70
210;DHT22;90;48.810;9.120;2022-12-29T08:58:43;11.40;69.90
210;DHT22;90;48.810;9.120;2022-12-29T09:01:10;11.40;69.70
210;DHT22;90;48.810;9.120;2022-12-29T09:03:37;11.40;69.70
210;DHT22;90;48.810;9.120;2022-12-29T09:06:04;11.50;69.60
210;DHT22;90;48.810;9.120;2022-12-29T09:08:31;11.60;69.50
210;DHT22;90;48.810;9.120;2022-12-29T09:11:06;11.60;69.40
210;DHT22;90;48.810;9.120;2022-12-29T09:13:34;11.60;69.40
210;DHT22;90;48.810;9.120;2022-12-29T09:16:02;11.70;69.20
210;DHT22;90;48.810;9.120;2022-12-29T09:18:30;11.70;69.40
210;DHT22;90;48.810;9.120;2022-12-29T09:20:58;11.80;69.40
210;DHT22;90;48.810;9.120;2022-12-29T09:23:25;11.80;69.30
210;DHT22;90;48.810;9.120;2022-12-29T09:25:53;11.80;69.10
210;DHT22;90;48.810;9.120;2022-12-29T09:28:20;11.80;69.30
210;DHT22;90;48.810;9.120;2022-12-29T09:30:47;11.90;68.90
210;DHT22;90;48.810;9.120;2022-12-29T09:33:16;12.00;69.00
210;DHT22;90;48.810;9.120;2022-12-29T09:35:44;12.00;68.90
210;DHT22;90;48.810;9.120;2022-12-29T09:38:12;12.10;68.80
210;DHT22;90;48.810;9.120;2022-12-29T09:40:44;12.10;68.90
210;DHT22;90;48.810;9.120;2022-12-29T09:43:28;12.20;68.50
210;DHT22;90;48.810;9.120;2022-12-29T09:46:03;12.30;68.00
210;DHT22;90;48.810;9.120;2022-12-29T09:48:39;12.60;77.30
210;DHT22;90;48.810;9.120;2022-12-29T09:51:11;12.80;67.80
210;DHT22;90;48.810;9.120;2022-12-29T09:53:41;12.80;66.90
210;DHT22;90;48.810;9.120;2022-12-29T09:56:15;12.80;66.50
210;DHT22;90;48.810;9.120;2022-12-29T09:58:47;12.80;66.60
210;DHT22;90;48.810;9.120;2022-12-29T10:01:23;12.90;66.60
210;DHT22;90;48.810;9.120;2022-12-29T10:03:56;12.90;66.80
210;DHT22;90;48.810;9.120;2022-12-29T10:06:26;12.80;66.90
210;DHT22;90;48.810;9.120;2022-12-29T10:09:01;12.80;67.10
210;DHT22;90;48.810;9.120;2022-12-29T10:11:43;12.80;67.30
210;DHT22;90;48.810;9.120;2022-12-29T10:14:28;12.80;67.50
210;DHT22;90;48.810;9.120;2022-12-29T10:17:04;12.80;67.80
210;DHT22;90;48.810;9.120;2022-12-29T10:20:02;12.80;67.90
210;DHT22;90;48.810;9.120;2022-12-29T10:22:41;13.00;68.30
210;DHT22;90;48.810;9.120;2022-12-29T10:25:15;12.90;67.60
210;DHT22;90;48.810;9.120;2022-12-29T10:27:43;12.90;67.80
210;DHT22;90;48.810;9.120;2022-12-29T10:30:14;12.90;67.80
210;DHT22;90;48.810;9.120;2022-12-29T10:32:45;12.90;67.60
210;DHT22;90;48.810;9.120;2022-12-29T10:35:18;12.80;67.90
210;DHT22;90;48.810;9.120;2022-12-29T10:37:50;12.90;68.00
210;DHT22;90;48.810;9.120;2022-12-29T10:40:23;12.90;67.90
210;DHT22;90;48.810;9.120;2022-12-29T10:42:53;13.00;67.80
210;DHT22;90;48.810;9.120;2022-12-29T10:45:23;13.10;67.70
210;DHT22;90;48.810;9.120;2022-12-29T10:47:57;13.00;67.90
210;DHT22;90;48.810;9.120;2022-12-29T10:50:27;13.10;67.70
210;DHT22;90;48.810;9.120;2022-12-29T10:52:58;13.00;67.90
210;DHT22;90;48.810;9.120;2022-12-29T10:55:29;13.10;67.60
210;DHT22;90;48.810;9.120;2022-12-29T10:58:01;13.10;67.60
210;DHT22;90;48.810;9.120;2022-12-29T11:00:31;13.20;67.40
210;DHT22;90;48.810;9.120;2022-12-29T11:03:30;13.20;67.40
210;DHT22;90;48.810;9.120;2022-12-29T11:06:07;13.30;67.00
210;DHT22;90;48.810;9.120;2022-12-29T11:08:38;13.20;66.20
210;DHT22;90;48.810;9.120;2022-12-29T11:11:08;13.20;66.60
210;DHT22;90;48.810;9.120;2022-12-29T11:13:46;13.20;67.10
210;DHT22;90;48.810;9.120;2022-12-29T11:16:14;13.20;66.60
210;DHT22;90;48.810;9.120;2022-12-29T11:18:41;13.20;66.80
210;DHT22;90;48.810;9.120;2022-12-29T11:21:32;13.30;66.80
210;DHT22;90;48.810;9.120;2022-12-29T11:24:00;13.20;67.00
210;DHT22;90;48.810;9.120;2022-12-29T11:26:28;13.30;65.90
210;DHT22;90;48.810;9.120;2022-12-29T11:29:23;13.30;65.90
210;DHT22;90;48.810;9.120;2022-12-29T11:31:53;13.30;66.30
210;DHT22;90;48.810;9.120;2022-12-29T11:34:23;13.40;65.90
210;DHT22;90;48.810;9.120;2022-12-29T11:36:58;13.40;64.60
210;DHT22;90;48.810;9.120;2022-12-29T11:39:34;13.30;65.30
210;DHT22;90;48.810;9.120;2022-12-29T11:42:03;13.20;64.50
210;DHT22;90;48.810;9.120;2022-12-29T11:44:37;13.20;64.10
210;DHT22;90;48.810;9.120;2022-12-29T11:47:11;13.10;64.00
210;DHT22;90;48.810;9.120;2022-12-29T11:49:39;13.10;64.20
210;DHT22;90;48.810;9.120;2022-12-29T11:52:08;13.00;64.30
210;DHT22;90;48.810;9.120;2022-12-29T11:54:37;13.00;64.90
210;DHT22;90;48.810;9.120;2022-12-29T11:57:13;13.00;68.80
210;DHT22;90;48.810;9.120;2022-12-29T11:59:42;12.80;72.70
210;DHT22;90;48.810;9.120;2022-12-29T12:02:40;12.70;74.90
210;DHT22;90;48.810;9.120;2022-12-29T12:05:24;12.60;75.70
210;DHT22;90;48.810;9.120;2022-12-29T12:07:59;12.40;77.00
210;DHT22;90;48.810;9.120;2022-12-29T12:10:31;12.30;77.20
210;DHT22;90;48.810;9.120;2022-12-29T12:13:05;12.30;77.60
210;DHT22;90;48.810;9.120;2022-12-29T12:15:39;12.30;77.60
210;DHT22;90;48.810;9.120;2022-12-29T12:18:11;12.30;77.40
210;DHT22;90;48.810;9.120;2022-12-29T12:20:45;12.20;77.60
210;DHT22;90;48.810;9.120;2022-12-29T12:23:26;12.20;77.80
210;DHT22;90;48.810;9.120;2022-12-29T12:25:59;12.20;78.00
210;DHT22;90;48.810;9.120;2022-12-29T12:28:35;12.20;78.40
210;DHT22;90;48.810;9.120;2022-12-29T12:31:10;12.20;78.40
210;DHT22;90;48.810;9.120;2022-12-29T12:33:44;12.30;77.80
210;DHT22;90;48.810;9.120;2022-12-29T12:36:27;12.40;76.70
210;DHT22;90;48.810;9.120;2022-12-29T12:39:02;12.40;76.20
210;DHT22;90;48.810;9.120;2022-12-29T12:41:44;12.40;76.10
210;DHT22;90;48.810;9.120;2022-12-29T12:44:20;12.60;76.20
210;DHT22;90;48.810;9.120;2022-12-29T12:47:14;12.60;74.90
210;DHT22;90;48.810;9.120;2022-12-29T12:50:18;12.70;75.00
210;DHT22;90;48.810;9.120;2022-12-29T12:53:03;12.70;75.30
210;DHT22;90;48.810;9.120;2022-12-29T12:55:46;12.90;74.90
210;DHT22;90;48.810;9.120;2022-12-29T12:58:22;12.90;74.90
210;DHT22;90;48.810;9.120;2022-12-29T13:01:05;12.90;74.70
210;DHT22;90;48.810;9.120;2022-12-29T13:03:47;12.80;75.50
210;DHT22;90;48.810;9.120;2022-12-29T13:06:21;13.50;78.10
210;DHT22;90;48.810;9.120;2022-12-29T13:09:16;13.40;74.40
210;DHT22;90;48.810;9.120;2022-12-29T13:12:02;13.30;74.40
210;DHT22;90;48.810;9.120;2022-12-29T13:14:38;13.20;74.80
210;DHT22;90;48.810;9.120;2022-12-29T13:17:15;13.10;75.20
210;DHT22;90;48.810;9.120;2022-12-29T13:19:50;13.20;75.10
210;DHT22;90;48.810;9.120;2022-12-29T13:22:27;13.10;74.90
210;DHT22;90;48.810;9.120;2022-12-29T13:25:07;13.10;74.90
210;DHT22;90;48.810;9.120;2022-12-29T13:27:46;13.00;75.30
210;DHT22;90;48.810;9.120;2022-12-29T13:30:17;12.90;75.50
210;DHT22;90;48.810;9.120;2022-12-29T13:32:53;12.90;75.30
210;DHT22;90;48.810;9.120;2022-12-29T13:35:32;12.80;75.10
210;DHT22;90;48.810;9.120;2022-12-29T13:38:08;12.70;75.50
210;DHT22;90;48.810;9.120;2022-12-29T13:40:41;12.60;75.60
210;DHT22;90;48.810;9.120;2022-12-29T13:43:12;12.60;75.90
210;DHT22;90;48.810;9.120;2022-12-29T13:45:40;12.50;76.00
210;DHT22;90;48.810;9.120;2022-12-29T13:48:15;12.60;76.00
210;DHT22;90;48.810;9.120;2022-12-29T13:50:51;12.60;76.00
210;DHT22;90;48.810;9.120;2022-12-29T13:53:25;12.60;76.40
210;DHT22;90;48.810;9.120;2022-12-29T13:56:00;12.50;76.50
210;DHT22;90;48.810;9.120;2022-12-29T13:58:37;12.50;76.70
210;DHT22;90;48.810;9.120;2022-12-29T14:01:10;12.50;76.90
210;DHT22;90;48.810;9.120;2022-12-29T14:03:46;12.50;77.10
210;DHT22;90;48.810;9.120;2022-12-29T14:06:19;12.50;76.80
210;DHT22;90;48.810;9.120;2022-12-29T14:08:48;12.50;76.70
210;DHT22;90;48.810;9.120;2022-12-29T14:11:18;12.50;76.90
210;DHT22;90;48.810;9.120;2022-12-29T14:13:48;12.50;77.00
210;DHT22;90;48.810;9.120;2022-12-29T14:16:27;12.50;77.10
210;DHT22;90;48.810;9.120;2022-12-29T14:18:55;12.40;77.90
210;DHT22;90;48.810;9.120;2022-12-29T14:21:25;12.40;77.70
210;DHT22;90;48.810;9.120;2022-12-29T14:26:44;12.40;77.70
210;DHT22;90;48.810;9.120;2022-12-29T14:32:36;12.40;77.70
210;DHT22;90;48.810;9.120;2022-12-29T14:38:26;12.50;77.50
210;DHT22;90;48.810;9.120;2022-12-29T14:41:23;12.50;77.30
210;DHT22;90;48.810;9.120;2022-12-29T14:43:53;12.50;77.00
210;DHT22;90;48.810;9.120;2022-12-29T14:46:23;12.40;77.50
210;DHT22;90;48.810;9.120;2022-12-29T14:48:56;12.40;77.80
210;DHT22;90;48.810;9.120;2022-12-29T14:51:32;12.40;77.60
210;DHT22;90;48.810;9.120;2022-12-29T14:54:34;12.30;77.90
210;DHT22;90;48.810;9.120;2022-12-29T14:57:13;12.30;78.00
210;DHT22;90;48.810;9.120;2022-12-29T14:59:41;12.30;78.00
210;DHT22;90;48.810;9.120;2022-12-29T15:02:16;12.30;77.30
210;DHT22;90;48.810;9.120;2022-12-29T15:04:47;12.30;77.50
210;DHT22;90;48.810;9.120;2022-12-29T15:07:15;12.20;77.90
210;DHT22;90;48.810;9.120;2022-12-29T15:09:46;12.20;78.10
210;DHT22;90;48.810;9.120;2022-12-29T15:12:20;12.10;78.10
210;DHT22;90;48.810;9.120;2022-12-29T15:14:49;12.20;78.00
210;DHT22;90;48.810;9.120;2022-12-29T15:17:24;12.10;78.20
210;DHT22;90;48.810;9.120;2022-12-29T15:19:53;12.10;78.30
210;DHT22;90;48.810;9.120;2022-12-29T15:22:21;12.00;78.60
210;DHT22;90;48.810;9.120;2022-12-29T15:24:50;12.00;78.80
210;DHT22;90;48.810;9.120;2022-12-29T15:27:21;12.00;78.80
210;DHT22;90;48.810;9.120;2022-12-29T15:29:57;11.90;78.90
210;DHT22;90;48.810;9.120;2022-12-29T15:32:26;11.80;78.90
210;DHT22;90;48.810;9.120;2022-12-29T15:34:56;11.90;78.70
210;DHT22;90;48.810;9.120;2022-12-29T15:37:27;11.90;78.70
210;DHT22;90;48.810;9.120;2022-12-29T15:39:55;12.00;78.50
210;DHT22;90;48.810;9.120;2022-12-29T15:45:16;12.00;79.10
210;DHT22;90;48.810;9.120;2022-12-29T15:47:45;11.90;80.80
210;DHT22;90;48.810;9.120;2022-12-29T15:50:22;11.70;81.70
210;DHT22;90;48.810;9.120;2022-12-29T15:52:50;11.30;83.60
210;DHT22;90;48.810;9.120;2022-12-29T15:55:20;11.10;85.30
210;DHT22;90;48.810;9.120;2022-12-29T15:57:48;10.90;86.40
210;DHT22;90;48.810;9.120;2022-12-29T16:00:27;10.80;86.50
210;DHT22;90;48.810;9.120;2022-12-29T16:02:55;10.80;87.00
210;DHT22;90;48.810;9.120;2022-12-29T16:05:32;10.70;87.20
210;DHT22;90;48.810;9.120;2022-12-29T16:08:00;10.70;87.20
210;DHT22;90;48.810;9.120;2022-12-29T16:10:31;10.70;87.40
210;DHT22;90;48.810;9.120;2022-12-29T16:13:26;10.70;87.40
210;DHT22;90;48.810;9.120;2022-12-29T16:15:56;10.70;87.90
210;DHT22;90;48.810;9.120;2022-12-29T16:18:30;10.70;87.90
210;DHT22;90;48.810;9.120;2022-12-29T16:21:16;10.80;88.90
210;DHT22;90;48.810;9.120;2022-12-29T16:23:55;10.90;87.40
210;DHT22;90;48.810;9.120;2022-12-29T16:26:29;10.70;87.40
210;DHT22;90;48.810;9.120;2022-12-29T16:29:01;10.70;87.50
210;DHT22;90;48.810;9.120;2022-12-29T16:32:01;10.70;88.00
210;DHT22;90;48.810;9.120;2022-12-29T16:34:50;10.70;88.20
210;DHT22;90;48.810;9.120;2022-12-29T16:37:30;10.70;87.70
210;DHT22;90;48.810;9.120;2022-12-29T16:40:29;10.70;87.80
210;DHT22;90;48.810;9.120;2022-12-29T16:43:04;10.70;88.00
210;DHT22;90;48.810;9.120;2022-12-29T16:46:17;10.70;88.20
210;DHT22;90;48.810;9.120;2022-12-29T16:49:06;10.80;88.30
210;DHT22;90;48.810;9.120;2022-12-29T16:51:44;10.80;88.00
210;DHT22;90;48.810;9.120;2022-12-29T16:54:22;10.80;87.80
210;DHT22;90;48.810;9.120;2022-12-29T16:56:53;10.70;88.50
210;DHT22;90;48.810;9.120;2022-12-29T16:59:27;10.70;89.40
210;DHT22;90;48.810;9.120;2022-12-29T17:02:14;10.70;89.40
210;DHT22;90;48.810;9.120;2022-12-29T17:04:50;10.80;90.70
210;DHT22;90;48.810;9.120;2022-12-29T17:07:39;10.70;90.20
210;DHT22;90;48.810;9.120;2022-12-29T17:10:14;10.60;90.10
210;DHT22;90;48.810;9.120;2022-12-29T17:12:47;10.60;90.20
210;DHT22;90;48.810;9.120;2022-12-29T17:15:21;10.60;90.20
210;DHT22;90;48.810;9.120;2022-12-29T17:17:55;10.60;90.40
210;DHT22;90;48.810;9.120;2022-12-29T17:20:26;10.50;90.80
210;DHT22;90;48.810;9.120;2022-12-29T17:22:58;10.60;90.80
210;DHT22;90;48.810;9.120;2022-12-29T17:25:29;10.60;90.40
210;DHT22;90;48.810;9.120;2022-12-29T17:28:01;10.50;90.70
210;DHT22;90;48.810;9.120;2022-12-29T17:30:32;10.50;91.10
210;DHT22;90;48.810;9.120;2022-12-29T17:33:03;10.50;91.20
210;DHT22;90;48.810;9.120;2022-12-29T17:35:36;10.60;90.90
210;DHT22;90;48.810;9.120;2022-12-29T17:38:21;10.60;90.40
210;DHT22;90;48.810;9.120;2022-12-29T17:40:59;10.60;90.40